Taylor, WI (54659)

10:55 AM CST on February 27, 2015 (GMT -0600)
WIDOT Black River Falls - I-94 @ Sandcut Hill | Change Station
CLOSE
Current Station
Personal Weather Station
Location: Black River Falls, WI
Elevation: 1090 ft
Nearby Weather Stations

Elev 1090 ft 44.34 °N, 90.91 °W | Updated 46 minutes ago

Clear
Clear
9 °F
Feels Like 9 °F
N
0
Wind Variable Wind from North
Gusts 0.0 mph

Today
High -- | Low -- °F
--% Chance of Precip.
Yesterday
High -- | Low -- °F
Precip. -- in
6:45 AM 5:49 PM
Waxing Gibbous, 70% visible
Pressure 30.56 in
Visibility 10.0 miles
Clouds Clear
Windchill 9 °F
Dew Point -6 °F
Humidity 50%
Rainfall -999.00 in
Snow Depth Not available.
UV 4 out of 12
Pollen .40 out of 12
Air Quality Not available.
Flu Activity Not available.
METAR KBCK 271635Z AUTO 23005KT 10SM CLR M14/M23 A3056 RMK AO2 T11401230

More Conditions Fewer Conditions

Pressure 30.56 in
Visibility 10.0 miles
Clouds Clear
Windchill 9 °F
Dew Point -6 °F
Humidity 50%
Rainfall -999.00 in
Snow Depth Not available.
UV 4 out of 12
Pollen .40 out of 12
Air Quality Not available.
Flu Activity Not available.
METAR KBCK 271635Z AUTO 23005KT 10SM CLR M14/M23 A3056 RMK AO2 T11401230

More Conditions Fewer Conditions

10-Day Weather Forecast

Almanac

Astronomy

Feb. 27, 2015 Rise Set
Actual Time
Civil Twilight
Nautical Twilight
Astronomical Twilight
Moon
Length of Visible Light
Length of Day
Tomorrow will be .
, % of the Moon is Illuminated

Today's Extremes

State Highs State Lows

Community

WunderPhotos

Upload Photos

1,800,732 photos uploaded!

WunderBlogs® & News

Nearby

Air Quality

  Air Quality AQ Index Pollutant
Not available.

Snow Depth

Station Depth Elevation

Earthquake Activity

City Distance Mag. Time & Date
Minimum magnitude displayed is 2.5.

Coastal Water Temperatures

Place Temperature

Nearby Weather Stations